Time;durP1;ratioP1;P1;durP2;ratioP2;P2;SDS_P1;SDS_P2;PMS_P1;PMS_P2;Temp;Humidity;BMP_temperature;BMP_pressure;BME280_temperature;BME280_humidity;BME280_pressure;Samples;Min_cycle;Max_cycle;Signal;HPM_P1;HPM_P2
2021/12/22 11:17:24;;;;;;;20.60;11.80;;;;;;;-0.61;84.83;102357.06;5298105;27;20451;-76
2021/12/22 11:20:08;;;;;;;20.37;11.03;;;;;;;-0.59;83.24;102357.97;5282391;28;20290;-75
2021/12/22 11:22:51;;;;;;;20.87;10.50;;;;;;;-0.64;83.07;102341.59;5285918;28;20032;-72
2021/12/22 11:25:24;;;;;;;18.53;12.23;;;;;;;-0.46;83.79;102356.41;5285535;28;20439;-74
2021/12/22 11:27:57;;;;;;;21.53;10.83;;;;;;;-0.38;84.18;102348.75;5286600;28;20078;-74
2021/12/22 11:30:28;;;;;;;22.67;11.30;;;;;;;-0.32;82.91;102343.69;5285440;28;20023;-74
2021/12/22 11:33:00;;;;;;;17.37;10.17;;;;;;;-0.25;81.57;102342.03;5290822;28;20031;-75
2021/12/22 11:35:33;;;;;;;15.63;10.43;;;;;;;-0.28;80.35;102337.69;5286961;28;21021;-75
2021/12/22 11:38:04;;;;;;;16.47;9.67;;;;;;;-0.14;80.64;102345.56;5284203;28;20095;-76
2021/12/22 11:40:36;;;;;;;13.13;9.13;;;;;;;-0.15;79.89;102337.81;5286512;28;20115;-76
2021/12/22 11:43:07;;;;;;;18.40;10.47;;;;;;;-0.25;78.65;102312.00;5281503;28;20040;-80
2021/12/22 11:45:38;;;;;;;12.83;8.80;;;;;;;-0.10;78.46;102332.69;5288024;28;20034;-75
2021/12/22 11:48:10;;;;;;;11.83;8.30;;;;;;;-0.06;80.16;102319.88;5285380;28;20170;-77
2021/12/22 11:50:47;;;;;;;13.87;8.57;;;;;;;0.04;80.31;102323.41;5285391;28;20430;-76
2021/12/22 11:53:18;;;;;;;15.70;9.10;;;;;;;0.04;81.17;102299.34;5282717;28;20032;-74
2021/12/22 11:55:52;;;;;;;13.70;7.87;;;;;;;0.22;81.26;102320.13;5285544;28;20036;-75
2021/12/22 11:58:35;;;;;;;15.93;8.85;;;;;;;0.28;79.98;102316.69;5285293;28;20044;-74
2021/12/22 12:01:10;;;;;;;17.17;8.40;;;;;;;0.17;79.11;102300.31;5287656;28;20406;-74
2021/12/22 12:03:44;;;;;;;17.10;9.43;;;;;;;0.17;81.05;102306.34;5282904;28;20028;-74
2021/12/22 12:06:21;;;;;;;19.05;10.30;;;;;;;0.22;81.97;102302.06;5284472;28;20062;-74
2021/12/22 12:08:57;;;;;;;12.53;8.20;;;;;;;0.19;80.66;102296.88;5283395;28;20090;-76
2021/12/22 12:11:56;;;;;;;15.77;10.27;;;;;;;0.28;80.73;102292.66;5276261;28;20066;-76
2021/12/22 12:14:32;;;;;;;15.97;9.70;;;;;;;0.23;81.58;102282.31;5276554;28;20118;-75
2021/12/22 12:23:27;;;;;;;16.50;9.35;;;;;;;0.24;81.36;102274.56;5302167;28;21636;-76
2021/12/22 12:26:20;;;;;;;17.63;10.70;;;;;;;0.22;81.91;102263.44;5296621;28;20024;-77
2021/12/22 12:28:51;;;;;;;22.80;9.17;;;;;;;0.22;81.98;102265.13;5286596;28;20142;-73
2021/12/22 12:31:39;;;;;;;13.33;8.83;;;;;;;0.32;82.33;102266.91;5282316;28;20032;-74
2021/12/22 12:34:23;;;;;;;13.50;8.73;;;;;;;0.28;81.87;102244.53;5282144;28;20483;-73
2021/12/22 12:36:55;;;;;;;15.20;9.57;;;;;;;0.28;80.66;102246.28;5282588;28;20032;-75
2021/12/22 12:39:55;;;;;;;15.00;10.37;;;;;;;0.34;81.22;102261.75;5280605;28;20620;-74
2021/12/22 12:42:26;;;;;;;17.47;9.53;;;;;;;0.33;80.46;102254.91;5282376;28;20027;-75
2021/12/22 12:44:58;;;;;;;16.50;8.80;;;;;;;0.39;81.23;102252.34;5283918;28;21350;-76
2021/12/22 12:47:29;;;;;;;17.10;9.03;;;;;;;0.39;81.89;102247.19;5280738;28;20025;-76
2021/12/22 12:50:19;;;;;;;16.37;9.97;;;;;;;0.43;81.57;102254.09;5288411;28;20160;-76
2021/12/22 12:53:02;;;;;;;22.23;10.10;;;;;;;0.34;81.23;102248.88;5277676;28;20117;-76
2021/12/22 12:55:33;;;;;;;16.93;9.73;;;;;;;0.25;81.00;102241.94;5273255;28;20147;-75
2021/12/22 12:58:26;;;;;;;24.30;11.37;;;;;;;0.34;81.57;102249.75;5282107;28;20012;-74
2021/12/22 13:00:57;;;;;;;16.30;10.13;;;;;;;0.29;81.03;102242.84;5274226;28;20111;-74
2021/12/22 13:03:46;;;;;;;20.23;10.00;;;;;;;0.46;81.32;102241.22;5282458;28;20217;-74
2021/12/22 13:06:17;;;;;;;15.03;10.07;;;;;;;0.40;81.25;102237.75;5280306;28;20046;-76
2021/12/22 13:08:48;;;;;;;16.47;11.47;;;;;;;0.38;81.92;102232.59;5282458;28;20032;-76
2021/12/22 13:11:19;;;;;;;17.13;10.97;;;;;;;0.39;81.34;102226.56;5280788;28;20028;-76
2021/12/22 13:16:41;;;;;;;17.87;10.07;;;;;;;0.38;81.95;102232.59;5280387;28;20052;-77
2021/12/22 13:19:39;;;;;;;14.87;8.63;;;;;;;0.44;82.49;102230.03;5288424;28;20375;-75
2021/12/22 13:22:19;;;;;;;13.47;9.27;;;;;;;0.52;82.95;102226.63;5254392;28;20383;-81
2021/12/22 13:25:11;;;;;;;16.13;9.87;;;;;;;0.52;83.87;102224.06;5274381;28;20025;-81
2021/12/22 13:27:46;;;;;;;19.70;11.30;;;;;;;0.44;83.35;102217.13;5262670;28;20067;-78
2021/12/22 13:30:20;;;;;;;17.20;10.77;;;;;;;0.43;83.35;102205.13;5278003;28;20028;-78
2021/12/22 13:33:02;;;;;;;16.08;10.70;;;;;;;0.45;83.55;102198.25;5272355;28;20029;-78
2021/12/22 13:35:41;;;;;;;16.77;9.37;;;;;;;0.45;84.03;102211.16;5273054;28;20568;-80
2021/12/22 13:38:19;;;;;;;12.93;9.73;;;;;;;0.42;82.85;102211.09;5274685;28;20440;-80
2021/12/22 13:40:58;;;;;;;15.27;9.67;;;;;;;0.40;82.67;102201.66;5271499;28;20028;-80
2021/12/22 13:43:44;;;;;;;17.10;9.83;;;;;;;0.43;83.26;102201.66;5269205;28;20025;-80
2021/12/22 13:46:15;;;;;;;14.13;9.07;;;;;;;0.34;82.56;102202.47;5275758;28;20475;-78
2021/12/22 13:48:50;;;;;;;13.10;8.93;;;;;;;0.36;82.55;102200.78;5282660;28;20047;-80
2021/12/22 13:51:26;;;;;;;16.70;10.32;;;;;;;0.35;81.95;102193.88;5276808;28;20032;-81
2021/12/22 13:53:57;;;;;;;17.23;9.53;;;;;;;0.39;82.68;102194.75;5275673;28;20147;-79
2021/12/22 13:56:33;;;;;;;13.50;9.47;;;;;;;0.27;82.09;102169.81;5258256;28;20028;-79
2021/12/22 13:59:11;;;;;;;18.77;9.47;;;;;;;0.33;82.58;102177.56;5284555;28;20035;-78
2021/12/22 14:01:45;;;;;;;14.57;9.10;;;;;;;0.39;83.06;102179.31;5285295;28;20039;-78
2021/12/22 14:04:20;;;;;;;16.00;10.70;;;;;;;0.41;82.85;102173.31;5278606;28;20040;-78
2021/12/22 14:06:54;;;;;;;16.23;10.47;;;;;;;0.44;83.89;102169.88;5281191;28;20013;-73
2021/12/22 14:09:27;;;;;;;15.97;10.57;;;;;;;0.56;83.80;102171.66;5273984;28;20032;-82
2021/12/22 14:12:11;;;;;;;17.10;11.50;;;;;;;0.62;84.09;102165.66;5275526;28;20031;-78
2021/12/22 14:14:42;;;;;;;20.13;10.43;;;;;;;0.50;82.73;102164.75;5283625;28;20084;-85
2021/12/22 14:17:42;;;;;;;21.00;12.13;;;;;;;0.48;82.99;102153.56;5278734;28;20052;-83
2021/12/22 14:20:18;;;;;;;27.60;13.43;;;;;;;0.39;83.58;102143.22;5281512;28;20108;-85
2021/12/22 14:23:02;;;;;;;18.80;11.67;;;;;;;0.46;83.87;102152.69;5272532;28;20522;-84
2021/12/22 14:25:36;;;;;;;18.57;11.47;;;;;;;0.44;82.52;102156.97;5284741;28;20086;-83
2021/12/22 14:28:20;;;;;;;17.58;10.77;;;;;;;0.42;81.94;102154.41;5290563;28;20036;-84
2021/12/22 14:30:52;;;;;;;21.08;11.43;;;;;;;0.28;82.55;102140.63;5262118;28;20048;-83
2021/12/22 14:33:30;;;;;;;21.37;12.13;;;;;;;0.18;82.93;102134.53;5281247;28;20114;-83
2021/12/22 14:36:03;;;;;;;16.33;11.97;;;;;;;0.21;83.76;102140.56;5278984;28;20040;-85
2021/12/22 14:38:36;;;;;;;18.13;12.97;;;;;;;0.15;83.45;102140.56;5279217;28;20035;-85
2021/12/22 14:41:11;;;;;;;27.07;14.00;;;;;;;0.06;83.77;102146.50;5273367;28;20028;-86
2021/12/22 14:43:47;;;;;;;19.03;12.83;;;;;;;0.05;83.80;102133.63;5265964;28;20403;-83
2021/12/22 14:46:33;;;;;;;22.43;13.43;;;;;;;-0.02;84.30;102133.56;5279910;28;20013;-74
2021/12/22 14:49:16;;;;;;;21.33;14.47;;;;;;;-0.07;84.54;102131.84;5279689;28;20024;-81
2021/12/22 14:51:49;;;;;;;22.20;13.83;;;;;;;-0.18;84.95;102117.19;5277159;28;20020;-74
2021/12/22 14:54:23;;;;;;;20.37;14.50;;;;;;;-0.12;85.09;102108.63;5282607;28;20020;-75
2021/12/22 14:56:58;;;;;;;21.77;14.50;;;;;;;-0.23;85.42;102106.00;5277467;28;20042;-76
2021/12/22 14:59:35;;;;;;;;;;;;;;;-0.05;84.98;102097.50;5290893;28;20057;-75
2021/12/22 15:02:06;;;;;;;30.77;19.00;;;;;;;-0.19;85.48;102100.00;5277102;28;20352;-77
2021/12/22 15:04:37;;;;;;;23.83;16.33;;;;;;;-0.21;85.79;102095.72;5281746;28;20107;-76
2021/12/22 15:07:09;;;;;;;28.23;17.20;;;;;;;-0.25;86.04;102095.69;5285935;28;20042;-76
2021/12/22 15:09:40;;;;;;;27.77;16.10;;;;;;;-0.24;86.09;102093.97;5280370;28;20035;-77
2021/12/22 15:12:11;;;;;;;23.10;16.17;;;;;;;-0.27;85.64;102094.81;5276435;28;20365;-76
2021/12/22 15:14:43;;;;;;;23.33;14.40;;;;;;;-0.20;85.33;102098.28;5284270;28;20024;-77
2021/12/22 15:17:14;;;;;;;23.50;17.00;;;;;;;-0.15;85.39;102106.91;5277351;28;20078;-76
2021/12/22 15:19:45;;;;;;;23.00;15.53;;;;;;;-0.11;85.12;102110.38;5279760;28;20044;-77
2021/12/22 15:22:19;;;;;;;26.00;17.37;;;;;;;-0.36;85.47;102087.03;5262517;28;20371;-75
2021/12/22 15:24:50;;;;;;;21.73;15.70;;;;;;;-0.25;85.19;102087.09;5276026;28;20442;-77
2021/12/22 15:27:21;;;;;;;26.90;16.30;;;;;;;-0.34;85.58;102087.91;5276048;28;20024;-74
2021/12/22 15:29:52;;;;;;;21.50;15.60;;;;;;;-0.38;86.16;102089.59;5287593;28;20024;-74
2021/12/22 15:32:24;;;;;;;22.33;16.37;;;;;;;-0.41;86.45;102081.00;5289205;28;20454;-75
2021/12/22 15:34:55;;;;;;;23.50;16.07;;;;;;;-0.41;86.75;102091.28;5284999;28;20486;-84
2021/12/22 15:37:26;;;;;;;25.60;16.27;;;;;;;-0.37;86.69;102093.06;5277735;28;20040;-76
2021/12/22 15:39:58;;;;;;;26.13;16.50;;;;;;;-0.31;86.53;102085.34;5278417;28;20475;-75
2021/12/22 15:42:29;;;;;;;25.10;15.27;;;;;;;-0.15;85.92;102077.72;5282966;28;20032;-78
2021/12/22 15:45:00;;;;;;;24.93;16.30;;;;;;;-0.27;85.81;102071.66;5281359;28;20043;-74
2021/12/22 15:47:32;;;;;;;27.07;16.10;;;;;;;-0.08;85.45;102076.91;5275289;28;20032;-74
2021/12/22 15:50:03;;;;;;;22.77;15.93;;;;;;;-0.08;85.13;102078.59;5283957;28;20059;-74
2021/12/22 15:52:35;;;;;;;27.33;17.93;;;;;;;-0.30;85.19;102074.22;5259660;28;20029;-76
2021/12/22 15:55:08;;;;;;;22.70;15.93;;;;;;;-0.34;85.63;102074.16;5282160;28;20043;-73
2021/12/22 15:57:39;;;;;;;35.60;16.93;;;;;;;-0.44;85.84;102063.84;5284897;28;20036;-75
2021/12/22 16:00:14;;;;;;;25.87;16.53;;;;;;;-0.47;86.19;102058.66;5281911;28;20459;-82
2021/12/22 16:02:46;;;;;;;33.65;21.90;;;;;;;-0.55;86.41;102060.31;5274236;28;21487;-74
2021/12/22 16:05:18;;;;;;;26.93;17.43;;;;;;;-0.59;86.68;102038.00;5275294;28;20034;-82
2021/12/22 16:07:51;;;;;;;36.43;22.97;;;;;;;-0.64;87.02;102054.25;5256366;28;20024;-78
2021/12/22 16:10:24;;;;;;;38.57;21.33;;;;;;;-0.71;87.42;102049.91;5279803;28;20479;-83
2021/12/22 16:12:55;;;;;;;29.57;21.50;;;;;;;-0.74;87.58;102039.63;5277808;28;20762;-79
2021/12/22 16:15:27;;;;;;;30.40;19.60;;;;;;;-0.76;87.89;102031.03;5276695;28;20040;-81
2021/12/22 16:17:58;;;;;;;26.77;19.23;;;;;;;-0.94;88.33;102011.19;5275084;28;20017;-77
2021/12/22 16:20:30;;;;;;;29.47;17.70;;;;;;;-0.69;88.21;102031.91;5284712;28;20063;-78
2021/12/22 16:23:02;;;;;;;29.47;18.17;;;;;;;-0.76;87.96;102026.75;5279949;28;20025;-83
2021/12/22 16:25:35;;;;;;;25.20;18.20;;;;;;;-0.79;88.24;102025.84;5282208;28;20027;-80
2021/12/22 16:28:06;;;;;;;28.63;17.97;;;;;;;-0.85;88.30;102024.09;5281488;28;20039;-80
2021/12/22 16:30:38;;;;;;;31.77;18.83;;;;;;;-0.82;88.30;102021.53;5280628;28;20020;-80
2021/12/22 16:33:09;;;;;;;31.73;19.07;;;;;;;-0.89;88.35;102006.94;5288182;28;20157;-78
2021/12/22 16:35:40;;;;;;;29.07;18.53;;;;;;;-0.87;88.51;102012.94;5273991;28;20032;-78
2021/12/22 16:38:12;;;;;;;29.73;17.70;;;;;;;-0.94;88.82;101995.75;5254712;28;20059;-77
2021/12/22 16:40:43;;;;;;;28.43;19.23;;;;;;;-0.89;88.76;102006.94;5254732;28;20042;-79
2021/12/22 16:43:14;;;;;;;37.27;21.47;;;;;;;-0.94;89.13;102001.75;5273323;28;20056;-78
2021/12/22 16:45:46;;;;;;;35.83;22.10;;;;;;;-0.82;88.81;102000.13;5273231;28;20028;-78
2021/12/22 16:48:17;;;;;;;34.17;21.33;;;;;;;-0.86;88.60;102004.38;5276446;28;20021;-78
2021/12/22 16:50:48;;;;;;;35.67;19.63;;;;;;;-0.81;88.41;102004.41;5288818;28;20020;-77
2021/12/22 16:53:19;;;;;;;31.97;23.40;;;;;;;-0.84;88.43;102007.81;5287417;28;20638;-78
2021/12/22 16:55:51;;;;;;;29.63;18.03;;;;;;;-0.86;88.87;102006.94;5254004;28;20032;-79
2021/12/22 16:58:22;;;;;;;29.50;18.60;;;;;;;-0.74;88.27;102011.31;5280802;28;20059;-82
2021/12/22 17:00:53;;;;;;;33.20;19.13;;;;;;;-0.78;87.70;102002.72;5266866;28;20026;-74
2021/12/22 17:03:25;;;;;;;27.07;17.63;;;;;;;-0.73;88.08;102005.31;5278896;28;20036;-73
2021/12/22 17:05:56;;;;;;;30.33;18.50;;;;;;;-0.63;87.50;102011.38;5273282;28;20479;-74
2021/12/22 17:08:27;;;;;;;35.20;19.70;;;;;;;-0.70;87.60;102012.19;5259479;28;20043;-73
2021/12/22 17:10:58;;;;;;;31.80;18.73;;;;;;;-0.83;87.84;101999.25;5285051;28;20032;-77
2021/12/22 17:13:30;;;;;;;33.47;18.87;;;;;;;-0.80;87.73;102004.41;5268848;28;20067;-72
2021/12/22 17:16:01;;;;;;;30.57;19.03;;;;;;;-0.85;87.85;101995.81;5273799;28;20048;-72
2021/12/22 17:18:33;;;;;;;27.60;18.70;;;;;;;-0.91;87.86;101986.31;5255206;28;20028;-71
2021/12/22 17:21:06;;;;;;;27.63;17.33;;;;;;;-0.90;88.14;101995.78;5283684;28;20036;-72
2021/12/22 17:23:38;;;;;;;30.23;18.90;;;;;;;-0.90;88.15;101985.50;5280457;28;20407;-71
2021/12/22 17:26:09;;;;;;;24.53;17.73;;;;;;;-0.81;87.98;101981.25;5277253;28;20028;-71
2021/12/22 17:28:41;;;;;;;30.20;18.87;;;;;;;-0.92;88.09;101982.03;5280863;28;20021;-76
2021/12/22 17:31:12;;;;;;;30.27;18.37;;;;;;;-0.95;88.85;101976.88;5272790;28;20034;-74
2021/12/22 17:33:45;;;;;;;31.40;18.50;;;;;;;-0.74;87.99;101973.59;5270362;28;20081;-77
2021/12/22 17:36:17;;;;;;;29.70;19.17;;;;;;;-0.98;87.76;101949.41;5258397;28;20552;-73
2021/12/22 17:38:49;;;;;;;28.83;19.33;;;;;;;-1.00;87.87;101940.84;5266876;28;20374;-72
2021/12/22 17:41:21;;;;;;;35.67;17.90;;;;;;;-1.00;88.02;101965.69;5260167;28;20060;-72
2021/12/22 17:43:52;;;;;;;29.83;18.43;;;;;;;-1.14;88.16;101958.75;5257547;28;20027;-83
2021/12/22 17:46:23;;;;;;;23.40;16.97;;;;;;;-1.14;88.51;101961.34;5260351;28;20039;-80
2021/12/22 17:48:56;;;;;;;25.90;18.13;;;;;;;-1.13;88.39;101959.59;5257446;28;20036;-81
2021/12/22 17:51:27;;;;;;;28.33;17.50;;;;;;;-1.22;88.65;101950.97;5256760;28;20698;-81
2021/12/22 17:53:59;;;;;;;30.27;17.63;;;;;;;-1.24;88.43;101939.81;5255799;28;20109;-81
2021/12/22 17:56:30;;;;;;;31.37;17.40;;;;;;;-1.23;88.32;101938.97;5256066;28;20040;-80
2021/12/22 17:59:05;;;;;;;25.50;18.73;;;;;;;-1.25;88.22;101929.53;5256531;28;20216;-80
2021/12/22 18:01:36;;;;;;;27.88;17.23;;;;;;;-1.22;87.99;101935.56;5238438;28;20047;-81
2021/12/22 18:04:08;;;;;;;29.10;19.33;;;;;;;-1.31;88.27;101919.22;5263398;28;20029;-79
2021/12/22 18:06:45;;;;;;;31.43;19.77;;;;;;;-1.21;87.97;101926.13;5280707;28;20669;-82
2021/12/22 18:09:19;;;;;;;27.43;18.47;;;;;;;-0.97;87.39;101929.72;5280203;28;20008;-85
2021/12/22 18:11:50;;;;;;;30.20;19.50;;;;;;;-0.92;87.24;101928.03;5280537;28;20055;-80
2021/12/22 18:14:21;;;;;;;38.10;21.90;;;;;;;-1.13;86.88;101900.47;5277539;28;20448;-81
2021/12/22 18:16:53;;;;;;;36.63;22.60;;;;;;;-1.08;86.63;101914.22;5278316;28;20127;-83
2021/12/22 18:19:24;;;;;;;29.33;21.13;;;;;;;-1.13;87.15;101923.59;5260727;28;20638;-85
2021/12/22 18:21:55;;;;;;;27.90;18.93;;;;;;;-1.20;86.73;101911.56;5286876;28;20054;-84
2021/12/22 18:24:27;;;;;;;26.80;19.20;;;;;;;-1.20;87.71;101909.00;5271677;28;20039;-83
2021/12/22 18:26:58;;;;;;;31.27;21.60;;;;;;;-1.20;87.27;101911.56;5253779;28;20025;-84
2021/12/22 18:29:29;;;;;;;30.37;20.10;;;;;;;-1.29;86.91;101897.78;5254311;28;20032;-85
2021/12/22 18:32:01;;;;;;;28.13;19.83;;;;;;;-1.33;87.53;101901.22;5272598;28;20034;-83
2021/12/22 18:34:34;;;;;;;28.37;19.93;;;;;;;-1.39;87.86;101896.00;5279011;28;20017;-84
2021/12/22 18:37:15;;;;;;;28.10;19.10;;;;;;;-1.41;88.25;101902.84;5287627;28;20055;-78
2021/12/22 18:39:49;;;;;;;28.17;19.70;;;;;;;-1.42;88.00;101904.56;5266881;28;20016;-76
2021/12/22 18:42:20;;;;;;;30.60;19.70;;;;;;;-1.38;88.36;101910.59;5285998;28;20024;-72
2021/12/22 18:44:53;;;;;;;30.00;20.60;;;;;;;-1.41;87.91;101896.00;5278013;28;20789;-76
2021/12/22 18:47:24;;;;;;;35.63;22.57;;;;;;;-1.28;87.71;101898.66;5282206;28;20024;-77
2021/12/22 18:49:56;;;;;;;30.07;19.50;;;;;;;-1.29;87.25;101897.78;5271713;28;20278;-80
2021/12/22 18:52:27;;;;;;;31.70;22.43;;;;;;;-1.36;87.39;101891.75;5271020;28;20020;-76
2021/12/22 18:54:58;;;;;;;29.40;19.63;;;;;;;-1.39;87.31;101885.72;5292596;28;20353;-82
2021/12/22 18:57:30;;;;;;;29.13;20.20;;;;;;;-1.39;87.54;101884.03;5290602;28;20034;-80
2021/12/22 19:00:03;;;;;;;31.83;19.90;;;;;;;-1.41;87.58;101877.13;5279167;28;20047;-81
2021/12/22 19:02:34;;;;;;;29.57;20.60;;;;;;;-1.41;87.17;101874.56;5291953;28;20058;-81
2021/12/22 19:05:06;;;;;;;29.10;20.30;;;;;;;-1.41;87.60;101877.13;5279474;28;20502;-81
2021/12/22 19:07:37;;;;;;;31.87;20.70;;;;;;;-1.41;87.31;101882.28;5270130;28;20521;-80
2021/12/22 19:10:09;;;;;;;31.10;21.37;;;;;;;-1.40;87.65;101876.31;5252875;28;20248;-77
2021/12/22 19:12:40;;;;;;;34.90;21.93;;;;;;;-1.40;87.29;101873.72;5288296;28;20062;-84
2021/12/22 19:15:15;;;;;;;29.70;20.47;;;;;;;-1.37;87.24;101868.59;5283601;28;20036;-77
2021/12/22 19:17:46;;;;;;;35.53;22.27;;;;;;;-1.31;86.94;101872.94;5299379;28;20097;-81
2021/12/22 19:20:18;;;;;;;32.40;21.90;;;;;;;-1.42;87.42;101868.59;5288119;28;20036;-78
2021/12/22 19:22:49;;;;;;;40.80;23.03;;;;;;;-1.41;87.38;101879.72;5278147;28;20024;-82
2021/12/22 19:25:21;;;;;;;62.97;35.83;;;;;;;-1.42;87.12;101875.44;5279144;28;20115;-80
2021/12/22 19:27:53;;;;;;;79.93;43.93;;;;;;;-1.37;87.20;101881.47;5280227;28;20526;-78
2021/12/22 19:30:26;;;;;;;58.50;33.23;;;;;;;-1.42;87.04;101876.28;5279482;28;20028;-78
2021/12/22 19:32:57;;;;;;;38.77;27.90;;;;;;;-1.37;87.32;101873.75;5275819;28;20044;-82
2021/12/22 19:35:29;;;;;;;37.50;28.13;;;;;;;-1.44;87.01;101884.81;5279898;28;20290;-84
2021/12/22 19:38:00;;;;;;;35.20;24.03;;;;;;;-1.47;87.59;101883.94;5281641;28;20047;-82
2021/12/22 19:40:32;;;;;;;37.93;24.27;;;;;;;-1.55;87.31;101871.94;5284077;28;20088;-81
2021/12/22 19:43:03;;;;;;;32.07;21.67;;;;;;;-1.47;87.40;101863.41;5266120;28;20044;-73
2021/12/22 19:45:35;;;;;;;31.80;20.73;;;;;;;-1.52;87.28;101870.22;5281398;28;20036;-71
2021/12/22 19:48:06;;;;;;;30.27;20.30;;;;;;;-1.42;87.31;101866.03;5262947;28;20036;-84
2021/12/22 19:50:38;;;;;;;31.43;21.03;;;;;;;-1.45;86.71;101860.88;5281482;28;20032;-80
2021/12/22 19:53:09;;;;;;;32.47;21.60;;;;;;;-1.37;86.83;101863.47;5279117;28;20035;-78
2021/12/22 19:55:41;;;;;;;39.77;24.03;;;;;;;-1.20;86.65;101865.31;5276701;28;20035;-75
2021/12/22 19:58:14;;;;;;;42.93;25.40;;;;;;;-1.35;86.28;101852.38;5283676;28;20046;-72
2021/12/22 20:00:45;;;;;;;37.93;25.13;;;;;;;-1.13;86.01;101877.31;5283822;28;20035;-71
2021/12/22 20:03:19;;;;;;;39.27;23.30;;;;;;;-1.10;85.91;101872.22;5283412;28;20306;-72
2021/12/22 20:05:50;;;;;;;29.45;20.38;;;;;;;-1.03;85.75;101873.94;5265017;28;20640;-71
2021/12/22 20:08:21;;;;;;;30.50;20.17;;;;;;;-0.98;85.25;101882.53;5276043;28;20032;-73
2021/12/22 20:10:55;;;;;;;29.90;20.87;;;;;;;-1.04;84.95;101868.81;5275702;28;20247;-73
2021/12/22 20:13:28;;;;;;;35.97;20.17;;;;;;;-1.05;84.62;101874.81;5286553;28;20151;-72
2021/12/22 20:15:59;;;;;;;35.87;22.10;;;;;;;-1.11;84.58;101860.19;5284740;28;20288;-71
2021/12/22 20:18:31;;;;;;;34.87;23.10;;;;;;;-1.19;85.64;101865.31;5288143;28;20038;-70
2021/12/22 20:21:04;;;;;;;32.90;21.77;;;;;;;-1.01;84.92;101871.38;5285047;28;20482;-70
2021/12/22 20:23:35;;;;;;;31.63;20.90;;;;;;;-1.14;84.75;101860.19;5285252;28;20043;-70
2021/12/22 20:26:07;;;;;;;33.40;20.00;;;;;;;-1.11;84.76;101852.47;5285754;28;20040;-71
2021/12/22 20:28:39;;;;;;;31.40;22.87;;;;;;;-1.16;85.00;101851.59;5284828;28;20028;-75
2021/12/22 20:31:11;;;;;;;35.57;22.60;;;;;;;-1.07;85.63;101841.38;5292725;28;20573;-78
2021/12/22 20:33:42;;;;;;;34.40;21.17;;;;;;;-1.08;85.28;101838.78;5272733;28;20118;-76
2021/12/22 20:36:13;;;;;;;37.17;22.47;;;;;;;-1.05;85.54;101824.25;5281260;28;20035;-74
2021/12/22 20:38:45;;;;;;;34.00;22.80;;;;;;;-1.08;85.08;101813.91;5292440;28;20043;-73
2021/12/22 20:41:16;;;;;;;30.57;20.43;;;;;;;-1.14;85.13;101813.91;5271045;28;20085;-73
2021/12/22 20:43:47;;;;;;;32.53;21.93;;;;;;;-1.10;85.24;101810.50;5285981;28;21680;-74
2021/12/22 20:46:19;;;;;;;30.77;20.50;;;;;;;-1.05;85.04;101813.97;5289736;28;20035;-74
2021/12/22 20:48:50;;;;;;;30.73;22.27;;;;;;;-1.19;85.01;101795.03;5292506;28;20035;-76
2021/12/22 20:51:22;;;;;;;32.67;21.67;;;;;;;-1.29;85.86;101797.53;5290476;28;20403;-76
2021/12/22 20:53:53;;;;;;;32.67;21.23;;;;;;;-1.22;86.13;101780.44;5289427;28;20020;-74
2021/12/22 20:56:26;;;;;;;36.63;20.10;;;;;;;-1.41;86.24;101774.34;5271977;28;20043;-81
2021/12/22 20:58:57;;;;;;;29.30;20.80;;;;;;;-1.13;86.57;101805.31;5290879;28;21088;-74
2021/12/22 21:01:31;;;;;;;30.60;19.70;;;;;;;-1.18;86.21;101787.31;5274899;28;20033;-72
2021/12/22 21:04:04;;;;;;;33.92;21.77;;;;;;;-1.15;86.12;101789.06;5294189;28;20031;-77
2021/12/22 21:06:35;;;;;;;29.93;19.67;;;;;;;-1.13;85.83;101779.63;5256310;28;20627;-70
2021/12/22 21:09:06;;;;;;;28.77;19.23;;;;;;;-1.08;86.53;101790.78;5273073;28;20044;-73
2021/12/22 21:11:40;;;;;;;30.53;19.67;;;;;;;-1.07;85.80;101792.53;5273165;28;20028;-72
2021/12/22 21:14:12;;;;;;;31.60;20.58;;;;;;;-1.14;85.81;101777.91;5273229;28;20489;-74
2021/12/22 21:16:44;;;;;;;31.33;21.03;;;;;;;-1.17;86.23;101773.59;5282969;28;20036;-69
2021/12/22 21:19:15;;;;;;;34.83;20.23;;;;;;;-1.25;85.88;101765.88;5282286;28;20093;-73
2021/12/22 21:21:47;;;;;;;34.90;21.60;;;;;;;-1.25;86.15;101765.88;5272237;28;20067;-73
2021/12/22 21:24:18;;;;;;;28.63;20.20;;;;;;;-1.23;86.20;101766.75;5291612;28;20523;-82
2021/12/22 21:26:49;;;;;;;28.17;20.10;;;;;;;-1.16;86.35;101769.31;5289371;28;20046;-79
2021/12/22 21:29:21;;;;;;;39.23;24.17;;;;;;;-1.16;85.98;101765.06;5276877;28;20028;-77
2021/12/22 21:31:53;;;;;;;32.17;22.07;;;;;;;-1.03;86.42;101760.81;5277158;28;20032;-75
2021/12/22 21:34:24;;;;;;;35.10;23.50;;;;;;;-1.25;86.04;101745.31;5279770;28;20309;-76
2021/12/22 21:36:56;;;;;;;38.03;25.67;;;;;;;-1.43;86.73;101719.53;5292678;28;20036;-78
2021/12/22 21:39:27;;;;;;;31.73;21.97;;;;;;;-1.42;87.10;101734.09;5288681;28;20070;-74
2021/12/22 21:41:58;;;;;;;27.70;20.60;;;;;;;-1.23;86.93;101746.19;5285400;28;20030;-81
2021/12/22 21:44:29;;;;;;;33.93;21.43;;;;;;;-1.17;87.06;101747.06;5287503;28;20088;-81
2021/12/22 21:47:01;;;;;;;33.00;21.10;;;;;;;-1.08;87.05;101770.22;5278411;28;20028;-74
2021/12/22 21:49:33;;;;;;;33.03;20.80;;;;;;;-1.03;86.51;101762.53;5283935;28;20489;-77
2021/12/22 21:52:09;;;;;;;27.73;19.90;;;;;;;-0.94;86.54;101766.84;5263049;28;20734;-78
2021/12/22 21:54:40;;;;;;;30.47;20.90;;;;;;;-0.96;86.03;101750.56;5280770;28;20479;-79
2021/12/22 21:57:11;;;;;;;26.87;19.70;;;;;;;-1.09;86.10;101745.38;5286461;28;20092;-79
2021/12/22 21:59:45;;;;;;;32.07;21.20;;;;;;;-1.20;85.45;101742.75;5285106;28;20028;-78
2021/12/22 22:02:17;;;;;;;43.83;24.38;;;;;;;-1.38;86.60;101717.84;5292855;28;20074;-87
2021/12/22 22:04:48;;;;;;;31.80;21.47;;;;;;;-1.56;86.90;101701.47;5258157;28;20024;-81
2021/12/22 22:07:20;;;;;;;29.47;19.10;;;;;;;-1.51;87.35;101706.63;5280656;28;20449;-75
2021/12/22 22:09:51;;;;;;;29.40;19.67;;;;;;;-1.18;87.16;101722.19;5292944;28;20024;-78
2021/12/22 22:12:22;;;;;;;30.90;19.67;;;;;;;-1.22;87.11;101722.19;5291140;28;20032;-75
2021/12/22 22:14:54;;;;;;;27.30;18.43;;;;;;;-1.11;86.36;101718.78;5268491;28;20016;-82
2021/12/22 22:17:25;;;;;;;27.00;19.63;;;;;;;-1.18;86.63;101712.75;5268360;28;20060;-76
2021/12/22 22:20:02;;;;;;;30.20;21.37;;;;;;;-1.27;86.64;101687.88;5285832;28;20046;-76
2021/12/22 22:22:33;;;;;;;31.07;21.27;;;;;;;-1.43;86.46;101688.69;5270910;28;20021;-74
2021/12/22 22:25:05;;;;;;;32.17;20.97;;;;;;;-1.44;86.60;101692.97;5273652;28;20029;-79
2021/12/22 22:27:36;;;;;;;34.90;22.17;;;;;;;-1.27;86.93;101695.59;5283140;28;20556;-73
2021/12/22 22:30:08;;;;;;;30.80;20.43;;;;;;;-1.45;86.75;101680.97;5285087;28;20056;-75
2021/12/22 22:32:40;;;;;;;29.20;20.23;;;;;;;-1.59;86.94;101652.66;5254925;28;20028;-75
2021/12/22 22:35:12;;;;;;;33.00;21.10;;;;;;;-1.58;87.10;101672.34;5271308;28;20238;-74
2021/12/22 22:37:45;;;;;;;31.97;20.83;;;;;;;-1.40;87.09;101675.84;5273943;28;20032;-72
2021/12/22 22:40:17;;;;;;;29.00;19.50;;;;;;;-1.27;87.30;101680.19;5286602;28;20838;-72
2021/12/22 22:42:50;;;;;;;29.20;20.00;;;;;;;-1.10;86.43;101676.81;5268909;28;20118;-74
2021/12/22 22:45:23;;;;;;;39.37;20.93;;;;;;;-1.15;86.34;101665.66;5286224;28;20020;-72
2021/12/22 22:47:55;;;;;;;29.33;21.03;;;;;;;-1.15;85.67;101657.94;5278586;28;20108;-72
2021/12/22 22:50:26;;;;;;;28.37;19.13;;;;;;;-1.13;85.49;101656.22;5279451;28;20153;-75
